Time;durP1;ratioP1;P1;durP2;ratioP2;P2;SDS_P1;SDS_P2;PMS_P1;PMS_P2;Temp;Humidity;BMP_temperature;BMP_pressure;BME280_temperature;BME280_humidity;BME280_pressure;Samples;Min_cycle;Max_cycle;Signal;HPM_P1;HPM_P2
2023/03/24 00:00:14;;;;;;;4.45;1.88;;;;;;;10.93;100.00;99363.41;699637;28;1026;-65
2023/03/24 00:00:35;;;;;;;4.18;1.80;;;;;;;10.97;100.00;99358.06;697951;28;960;-66
2023/03/24 00:01:00;;;;;;;4.78;1.90;;;;;;;10.92;100.00;99361.69;700621;28;4249;-65
2023/03/24 00:01:21;;;;;;;4.10;2.00;;;;;;;10.87;100.00;99353.97;700448;28;931;-66
2023/03/24 00:01:42;;;;;;;4.13;1.90;;;;;;;10.85;100.00;99355.78;699112;28;1260;-66
2023/03/24 00:02:03;;;;;;;4.20;1.90;;;;;;;10.83;100.00;99355.81;698873;28;1408;-66
2023/03/24 00:02:27;;;;;;;4.82;2.03;;;;;;;10.92;100.00;99353.84;699519;28;939;-66
2023/03/24 00:02:50;;;;;;;4.45;1.90;;;;;;;10.91;100.00;99355.63;698710;28;1034;-65
2023/03/24 00:03:10;;;;;;;4.22;1.92;;;;;;;10.87;100.00;99354.84;700584;28;856;-65
2023/03/24 00:03:31;;;;;;;4.00;1.95;;;;;;;10.85;100.00;99359.22;698876;28;1980;-65
2023/03/24 00:03:52;;;;;;;4.30;1.90;;;;;;;10.83;100.00;99358.44;697912;28;4423;-65
2023/03/24 00:04:13;;;;;;;4.60;1.90;;;;;;;10.82;100.00;99358.47;703409;28;899;-65
2023/03/24 00:04:34;;;;;;;5.43;2.00;;;;;;;10.87;100.00;99360.06;703138;28;915;-66
2023/03/24 00:04:57;;;;;;;3.65;1.80;;;;;;;10.88;100.00;99355.69;701840;28;1053;-66
2023/03/24 00:05:21;;;;;;;3.90;1.90;;;;;;;10.87;100.00;99352.22;702912;28;1364;-66
2023/03/24 00:05:43;;;;;;;3.78;2.10;;;;;;;10.89;100.00;99349.56;699776;28;2183;-66
2023/03/24 00:06:06;;;;;;;3.78;1.95;;;;;;;10.84;100.00;99347.06;696680;28;2217;-66
2023/03/24 00:06:26;;;;;;;5.72;2.17;;;;;;;10.86;100.00;99347.88;700269;28;1071;-65
2023/03/24 00:06:48;;;;;;;5.30;2.20;;;;;;;10.85;100.00;99346.16;697883;28;4383;-65
2023/03/24 00:07:13;;;;;;;3.97;1.90;;;;;;;10.88;100.00;99351.31;695506;28;1751;-66
2023/03/24 00:07:37;;;;;;;3.13;1.70;;;;;;;10.88;100.00;99346.09;692918;28;944;-66
2023/03/24 00:08:02;;;;;;;3.05;1.70;;;;;;;10.87;100.00;99353.97;694911;28;1217;-66
2023/03/24 00:08:23;;;;;;;3.60;1.77;;;;;;;10.88;100.00;99350.44;695702;28;1373;-66
2023/03/24 00:08:46;;;;;;;5.30;1.90;;;;;;;10.92;100.00;99346.00;695429;28;983;-65
2023/03/24 00:09:08;;;;;;;4.45;1.95;;;;;;;10.96;100.00;99345.88;697927;28;944;-65
2023/03/24 00:09:29;;;;;;;3.67;1.90;;;;;;;10.91;100.00;99347.78;698489;28;841;-65
2023/03/24 00:09:50;;;;;;;5.20;2.00;;;;;;;10.90;100.00;99354.75;698225;28;4339;-65
2023/03/24 00:10:13;;;;;;;4.90;1.98;;;;;;;10.88;100.00;99346.09;699273;28;1562;-65
2023/03/24 00:10:35;;;;;;;4.05;2.17;;;;;;;10.87;100.00;99335.69;694607;28;956;-65
2023/03/24 00:11:03;;;;;;;4.60;2.13;;;;;;;10.83;100.00;99347.97;696086;28;1068;-65
2023/03/24 00:11:24;;;;;;;3.47;1.88;;;;;;;10.82;100.00;99340.16;694747;28;936;-66
2023/03/24 00:11:44;;;;;;;3.90;1.92;;;;;;;10.79;100.00;99343.72;693147;28;927;-64
2023/03/24 00:12:05;;;;;;;3.90;1.83;;;;;;;10.79;100.00;99341.09;692788;28;1306;-65
2023/03/24 00:12:26;;;;;;;4.95;2.10;;;;;;;10.79;100.00;99343.72;692602;28;1370;-65
2023/03/24 00:12:47;;;;;;;4.83;2.10;;;;;;;10.77;100.00;99342.88;690373;28;4338;-64
2023/03/24 00:13:08;;;;;;;4.63;2.13;;;;;;;10.80;100.00;99348.06;688810;28;917;-64
2023/03/24 00:13:30;;;;;;;4.23;2.00;;;;;;;10.80;100.00;99349.78;691712;28;1219;-65
2023/03/24 00:13:51;;;;;;;5.28;2.00;;;;;;;10.79;100.00;99345.50;693638;28;1002;-65
2023/03/24 00:14:11;;;;;;;4.25;1.88;;;;;;;10.79;100.00;99343.72;696039;28;817;-65
2023/03/24 00:14:32;;;;;;;4.13;1.77;;;;;;;10.82;100.00;99348.88;697266;28;1245;-65
2023/03/24 00:14:53;;;;;;;4.73;2.00;;;;;;;10.87;100.00;99346.16;699242;28;1133;-65
2023/03/24 00:15:17;;;;;;;3.63;1.90;;;;;;;10.88;100.00;99345.22;699257;28;1416;-65
2023/03/24 00:15:38;;;;;;;4.50;1.90;;;;;;;10.89;100.00;99341.72;694434;28;1019;-65
2023/03/24 00:15:58;;;;;;;4.82;2.00;;;;;;;10.89;100.00;99350.41;694120;28;4320;-66
2023/03/24 00:16:20;;;;;;;5.10;2.10;;;;;;;10.93;100.00;99342.50;694808;28;777;-65
2023/03/24 00:16:41;;;;;;;4.60;2.00;;;;;;;10.98;100.00;99345.81;693573;28;1215;-65
2023/03/24 00:17:02;;;;;;;3.67;1.70;;;;;;;10.99;100.00;99344.94;694972;28;832;-65
2023/03/24 00:17:24;;;;;;;3.90;1.73;;;;;;;11.03;100.00;99352.63;695330;28;1142;-65
2023/03/24 00:17:51;;;;;;;4.25;1.98;;;;;;;11.02;100.00;99347.44;699179;28;1191;-65
2023/03/24 00:18:11;;;;;;;3.72;1.88;;;;;;;11.10;100.00;99342.03;698826;28;972;-65
2023/03/24 00:18:31;;;;;;;3.90;2.17;;;;;;;11.11;100.00;99339.38;699531;28;1484;-66
2023/03/24 00:18:52;;;;;;;4.88;2.20;;;;;;;11.11;100.00;99341.13;695790;28;4365;-65
2023/03/24 00:19:13;;;;;;;5.70;2.10;;;;;;;11.11;100.00;99341.13;696684;28;1326;-65
2023/03/24 00:19:38;;;;;;;4.03;2.00;;;;;;;11.21;100.00;99342.56;698260;28;907;-65
2023/03/24 00:19:58;;;;;;;3.88;1.90;;;;;;;11.24;100.00;99334.63;696993;28;3341;-66
2023/03/24 00:20:21;;;;;;;4.30;1.97;;;;;;;11.24;100.00;99338.13;697320;28;1166;-65
2023/03/24 00:20:44;;;;;;;3.83;1.90;;;;;;;11.19;100.00;99340.00;697173;28;907;-65
2023/03/24 00:21:07;;;;;;;4.28;1.90;;;;;;;11.14;100.00;99341.88;696324;28;1268;-63
2023/03/24 00:21:28;;;;;;;4.30;2.50;;;;;;;11.08;100.00;99342.06;695110;28;1537;-65
2023/03/24 00:21:49;;;;;;;4.20;2.00;;;;;;;11.08;100.00;99339.47;693513;28;4439;-65
2023/03/24 00:22:14;;;;;;;3.58;2.00;;;;;;;11.12;100.00;99332.38;694616;28;1150;-65
2023/03/24 00:22:35;;;;;;;3.45;2.00;;;;;;;11.10;100.00;99340.25;697299;28;1703;-65
2023/03/24 00:22:57;;;;;;;4.28;2.05;;;;;;;11.08;100.00;99337.69;697574;28;1288;-64
2023/03/24 00:23:17;;;;;;;4.28;1.92;;;;;;;11.06;100.00;99336.88;698617;28;1334;-65
2023/03/24 00:23:41;;;;;;;3.47;1.90;;;;;;;11.09;100.00;99333.34;698204;28;1968;-65
2023/03/24 00:24:03;;;;;;;3.63;2.03;;;;;;;11.13;100.00;99339.31;698935;28;1232;-65
2023/03/24 00:24:24;;;;;;;4.57;2.08;;;;;;;11.11;100.00;99333.28;697155;28;920;-65
2023/03/24 00:24:45;;;;;;;4.63;1.90;;;;;;;11.18;100.00;99342.66;694909;28;4624;-64
2023/03/24 00:25:05;;;;;;;4.45;1.90;;;;;;;11.14;100.00;99344.50;699142;28;963;-66
2023/03/24 00:25:34;;;;;;;4.95;1.90;;;;;;;11.18;100.00;99335.66;696630;28;848;-65
2023/03/24 00:26:14;;;;;;;4.00;1.80;;;;;;;11.25;100.00;99334.59;698386;28;1153;-65
2023/03/24 00:26:37;;;;;;;3.70;1.80;;;;;;;11.22;100.00;99334.69;694539;28;1297;-65
2023/03/24 00:26:57;;;;;;;3.88;1.73;;;;;;;11.17;100.00;99333.09;696158;28;1002;-65
2023/03/24 00:27:19;;;;;;;4.82;1.73;;;;;;;11.13;100.00;99332.34;693413;28;888;-64
2023/03/24 00:27:40;;;;;;;5.03;1.90;;;;;;;11.09;100.00;99320.25;696237;28;999;-64
2023/03/24 00:28:04;;;;;;;3.97;1.98;;;;;;;11.10;100.00;99321.94;696910;28;6163;-64
2023/03/24 00:28:25;;;;;;;4.25;1.90;;;;;;;11.03;100.00;99323.88;699227;28;963;-64
2023/03/24 00:28:47;;;;;;;3.95;1.88;;;;;;;11.01;100.00;99320.47;702817;28;1319;-64
2023/03/24 00:29:12;;;;;;;3.92;2.03;;;;;;;11.01;100.00;99328.31;701625;28;989;-65
2023/03/24 00:29:35;;;;;;;4.60;2.13;;;;;;;10.99;100.00;99326.63;701638;28;1313;-63
2023/03/24 00:29:58;;;;;;;4.18;1.88;;;;;;;11.01;100.00;99319.63;701228;28;904;-64
2023/03/24 00:30:19;;;;;;;5.70;2.22;;;;;;;10.99;100.00;99318.78;702488;28;1240;-65
2023/03/24 00:30:40;;;;;;;5.43;2.10;;;;;;;10.96;100.00;99316.25;694609;28;968;-65
2023/03/24 00:31:03;;;;;;;4.05;2.10;;;;;;;10.96;100.00;99314.50;694421;28;4629;-65
2023/03/24 00:31:24;;;;;;;4.13;1.88;;;;;;;11.01;100.00;99317.84;692825;28;1349;-65
2023/03/24 00:31:44;;;;;;;3.65;1.73;;;;;;;10.99;100.00;99316.16;692618;28;1346;-65
2023/03/24 00:32:06;;;;;;;3.70;1.95;;;;;;;10.96;100.00;99317.09;692671;28;1466;-65
2023/03/24 00:32:29;;;;;;;3.55;2.00;;;;;;;10.94;100.00;99310.19;690427;28;1388;-65
2023/03/24 00:32:50;;;;;;;3.47;1.90;;;;;;;10.97;100.00;99307.53;689709;28;1695;-66
2023/03/24 00:33:10;;;;;;;3.45;1.80;;;;;;;10.96;100.00;99306.66;691159;28;1035;-66
2023/03/24 00:33:33;;;;;;;4.70;2.10;;;;;;;10.97;100.00;99308.38;693260;28;908;-66
2023/03/24 00:33:54;;;;;;;3.80;1.88;;;;;;;10.99;100.00;99308.31;689729;28;4366;-65
2023/03/24 00:34:15;;;;;;;3.63;1.88;;;;;;;11.05;100.00;99300.31;692411;28;881;-65
2023/03/24 00:34:37;;;;;;;3.67;1.80;;;;;;;11.06;100.00;99313.34;694748;28;1389;-65
2023/03/24 00:34:57;;;;;;;3.92;1.95;;;;;;;11.05;100.00;99300.31;695832;28;1185;-66
2023/03/24 00:35:18;;;;;;;3.90;2.00;;;;;;;11.04;100.00;99303.84;691205;28;865;-67
2023/03/24 00:35:39;;;;;;;4.35;2.00;;;;;;;11.04;100.00;99306.44;693421;28;904;-66
2023/03/24 00:36:01;;;;;;;4.13;1.85;;;;;;;11.07;100.00;99306.34;696718;28;1268;-65
2023/03/24 00:36:25;;;;;;;4.40;1.98;;;;;;;11.05;100.00;99302.94;696731;28;1177;-65
2023/03/24 00:36:46;;;;;;;3.90;2.00;;;;;;;11.06;100.00;99296.78;690562;28;5294;-65
2023/03/24 00:37:06;;;;;;;4.47;1.98;;;;;;;11.06;100.00;99296.78;686375;28;1195;-64
2023/03/24 00:37:27;;;;;;;4.20;1.90;;;;;;;11.08;100.00;99298.47;688008;28;889;-65
2023/03/24 00:37:50;;;;;;;3.67;1.80;;;;;;;11.06;100.00;99300.28;688767;28;1255;-66
2023/03/24 00:38:12;;;;;;;3.75;1.90;;;;;;;11.06;100.00;99295.03;688842;28;1072;-65
2023/03/24 00:38:33;;;;;;;3.83;1.75;;;;;;;11.05;100.00;99301.16;689790;28;876;-66
2023/03/24 00:38:55;;;;;;;3.75;1.88;;;;;;;11.04;100.00;99301.22;685869;28;5891;-65
2023/03/24 00:39:19;;;;;;;3.67;1.80;;;;;;;11.02;100.00;99295.16;687364;28;814;-65
2023/03/24 00:39:41;;;;;;;3.58;1.70;;;;;;;11.07;100.00;99291.50;691951;28;917;-66
2023/03/24 00:40:12;;;;;;;3.90;1.75;;;;;;;11.13;100.00;99298.34;693616;28;4712;-65
2023/03/24 00:40:32;;;;;;;3.40;1.95;;;;;;;11.07;100.00;99299.34;694105;28;790;-65
2023/03/24 00:40:53;;;;;;;3.65;1.92;;;;;;;11.06;100.00;99296.78;698673;28;940;-65
2023/03/24 00:41:18;;;;;;;3.90;2.10;;;;;;;11.04;100.00;99288.97;694162;28;1973;-65
2023/03/24 00:41:43;;;;;;;4.32;2.13;;;;;;;11.01;100.00;99288.22;694528;28;1028;-65
2023/03/24 00:42:04;;;;;;;3.90;1.90;;;;;;;10.97;100.00;99291.84;694417;28;817;-65
2023/03/24 00:42:25;;;;;;;3.40;1.90;;;;;;;10.96;100.00;99292.72;693167;28;1442;-65
2023/03/24 00:42:47;;;;;;;3.20;1.77;;;;;;;10.99;100.00;99292.63;691899;28;4405;-65
2023/03/24 00:43:08;;;;;;;3.90;1.77;;;;;;;10.97;100.00;99297.06;691982;28;1536;-65
2023/03/24 00:43:29;;;;;;;4.35;1.80;;;;;;;10.96;100.00;99292.72;693815;28;1934;-65
2023/03/24 00:43:50;;;;;;;3.60;1.85;;;;;;;11.01;100.00;99285.63;694537;28;1036;-65
2023/03/24 00:44:20;;;;;;;3.55;1.90;;;;;;;10.97;100.00;99290.06;693555;28;1294;-65
2023/03/24 00:44:43;;;;;;;3.50;1.90;;;;;;;11.00;100.00;99281.28;695258;28;944;-65
2023/03/24 00:45:08;;;;;;;4.18;2.00;;;;;;;11.01;100.00;99277.78;692767;28;1310;-65
2023/03/24 00:45:33;;;;;;;3.75;1.88;;;;;;;11.03;100.00;99278.56;692750;28;1311;-65
2023/03/24 00:46:02;;;;;;;4.18;1.95;;;;;;;11.04;100.00;99275.06;687885;28;4313;-65
2023/03/24 00:46:27;;;;;;;4.38;2.13;;;;;;;11.01;100.00;99280.38;689374;28;886;-65
2023/03/24 00:46:56;;;;;;;4.25;1.90;;;;;;;11.01;100.00;99273.38;690371;28;1083;-65
2023/03/24 00:47:24;;;;;;;3.88;2.08;;;;;;;10.99;100.00;99285.63;698476;28;2165;-65
2023/03/24 00:47:48;;;;;;;3.85;1.90;;;;;;;10.94;100.00;99286.66;696374;28;1010;-65
2023/03/24 00:48:10;;;;;;;4.30;1.92;;;;;;;10.93;100.00;99287.59;693576;28;948;-65
2023/03/24 00:48:31;;;;;;;4.88;2.03;;;;;;;10.92;100.00;99293.72;695622;28;1075;-65
2023/03/24 00:49:01;;;;;;;4.20;1.97;;;;;;;10.90;100.00;99294.59;696144;28;4352;-65
2023/03/24 00:49:41;;;;;;;4.00;1.90;;;;;;;10.90;100.00;99280.69;698036;28;861;-66
2023/03/24 00:50:08;;;;;;;4.50;2.00;;;;;;;10.86;100.00;99287.75;699881;28;1207;-66
2023/03/24 00:50:32;;;;;;;4.78;2.20;;;;;;;10.94;100.00;99286.66;701024;28;914;-66
2023/03/24 00:50:52;;;;;;;4.78;2.08;;;;;;;11.01;100.00;99283.00;695895;28;1218;-66
2023/03/24 00:51:14;;;;;;;5.63;2.03;;;;;;;11.01;100.00;99293.47;696731;28;876;-65
2023/03/24 00:51:37;;;;;;;4.03;1.90;;;;;;;10.94;100.00;99282.31;696502;28;1153;-65
2023/03/24 00:51:58;;;;;;;3.58;2.00;;;;;;;10.94;100.00;99291.91;694759;28;4283;-65
2023/03/24 00:52:21;;;;;;;3.50;1.80;;;;;;;10.92;100.00;99288.50;693731;28;1472;-66
2023/03/24 00:52:43;;;;;;;4.65;2.10;;;;;;;11.00;100.00;99284.75;693510;28;935;-66
2023/03/24 00:53:03;;;;;;;4.15;1.90;;;;;;;11.01;100.00;99289.09;692220;28;1360;-65
2023/03/24 00:53:27;;;;;;;3.47;1.80;;;;;;;10.99;100.00;99285.63;694366;28;1054;-65
2023/03/24 00:53:48;;;;;;;4.13;1.90;;;;;;;10.95;100.00;99288.38;693229;28;1027;-66
2023/03/24 00:54:11;;;;;;;4.55;2.00;;;;;;;10.92;100.00;99288.50;695875;28;1417;-66
2023/03/24 00:54:31;;;;;;;4.63;1.90;;;;;;;10.90;100.00;99292.00;696207;28;880;-66
2023/03/24 00:54:57;;;;;;;4.67;2.00;;;;;;;10.87;100.00;99286.84;697663;28;4712;-65
2023/03/24 00:55:17;;;;;;;3.55;2.00;;;;;;;10.93;100.00;99287.59;697127;28;1049;-66
2023/03/24 00:55:38;;;;;;;3.92;1.95;;;;;;;10.96;100.00;99280.50;697241;28;1334;-66
2023/03/24 00:55:58;;;;;;;3.87;1.93;;;;;;;11.02;100.00;99282.09;695454;28;1145;-66
2023/03/24 00:56:19;;;;;;;4.38;2.00;;;;;;;11.03;100.00;99278.56;693107;28;1200;-67
2023/03/24 00:56:42;;;;;;;4.38;2.20;;;;;;;11.09;100.00;99281.03;692575;28;959;-67
2023/03/24 00:57:03;;;;;;;4.22;2.20;;;;;;;11.04;100.00;99285.53;689117;28;1404;-66
2023/03/24 00:57:25;;;;;;;3.95;1.80;;;;;;;11.02;100.00;99284.69;695627;28;1360;-66
2023/03/24 00:57:49;;;;;;;4.45;1.90;;;;;;;11.03;100.00;99282.03;688944;28;4642;-66
2023/03/24 00:58:16;;;;;;;3.88;2.00;;;;;;;11.03;100.00;99279.41;688885;28;1218;-66
2023/03/24 00:58:37;;;;;;;4.63;2.20;;;;;;;11.00;100.00;99274.28;689431;28;1063;-67
2023/03/24 00:59:01;;;;;;;4.07;1.90;;;;;;;10.98;100.00;99275.22;688093;28;1410;-66
2023/03/24 00:59:22;;;;;;;4.10;2.00;;;;;;;11.02;100.00;99277.72;692162;28;896;-66
2023/03/24 00:59:47;;;;;;;3.95;1.90;;;;;;;11.03;100.00;99273.34;689593;28;957;-66
2023/03/24 01:00:13;;;;;;;4.38;1.92;;;;;;;11.07;100.00;99273.19;689833;28;2017;-66
2023/03/24 01:00:34;;;;;;;4.00;2.08;;;;;;;11.05;100.00;99275.00;690070;28;1315;-66
2023/03/24 01:00:56;;;;;;;4.07;1.98;;;;;;;11.02;100.00;99274.25;689752;28;4474;-66
2023/03/24 01:01:17;;;;;;;4.30;2.10;;;;;;;11.01;100.00;99272.53;689883;28;971;-66
2023/03/24 01:01:39;;;;;;;3.53;2.00;;;;;;;11.08;100.00;99271.47;690753;28;980;-66
2023/03/24 01:02:00;;;;;;;3.42;1.83;;;;;;;11.05;100.00;99268.94;692073;28;1401;-66
2023/03/24 01:02:23;;;;;;;3.90;1.90;;;;;;;11.01;100.00;99267.31;692579;28;1327;-66
2023/03/24 01:02:52;;;;;;;4.20;1.90;;;;;;;10.95;100.00;99270.97;691299;28;985;-66
2023/03/24 01:03:13;;;;;;;4.10;2.13;;;;;;;10.93;100.00;99269.28;688382;28;2253;-66
2023/03/24 01:03:42;;;;;;;3.72;1.90;;;;;;;10.89;100.00;99266.75;693795;28;1914;-66
2023/03/24 01:04:04;;;;;;;4.82;2.30;;;;;;;10.85;100.00;99267.72;693498;28;7328;-65
2023/03/24 01:04:25;;;;;;;4.03;2.28;;;;;;;10.83;100.00;99269.53;697641;28;939;-66
2023/03/24 01:04:46;;;;;;;4.65;2.30;;;;;;;10.90;100.00;99271.06;696260;28;1425;-66
2023/03/24 01:05:07;;;;;;;5.13;2.10;;;;;;;10.89;100.00;99266.75;697590;28;1313;-66
2023/03/24 01:05:29;;;;;;;5.03;2.00;;;;;;;10.87;100.00;99262.47;692629;28;1401;-65
2023/03/24 01:05:53;;;;;;;3.83;2.10;;;;;;;10.82;100.00;99272.22;691691;28;949;-65
2023/03/24 01:06:13;;;;;;;4.25;2.17;;;;;;;10.78;100.00;99266.19;692559;28;1306;-66
2023/03/24 01:06:38;;;;;;;4.00;2.00;;;;;;;10.77;100.00;99264.47;691066;28;1350;-66
2023/03/24 01:06:58;;;;;;;4.07;1.90;;;;;;;10.77;100.00;99261.00;693400;28;4408;-66
2023/03/24 01:07:20;;;;;;;4.45;1.90;;;;;;;10.78;100.00;99266.19;693098;28;880;-66
2023/03/24 01:07:42;;;;;;;4.38;1.92;;;;;;;10.78;100.00;99260.97;693818;28;884;-66
2023/03/24 01:08:05;;;;;;;3.97;2.10;;;;;;;10.77;100.00;99263.63;694359;28;854;-67
2023/03/24 01:08:27;;;;;;;4.45;2.20;;;;;;;10.75;100.00;99258.44;690743;28;1388;-65
2023/03/24 01:08:48;;;;;;;4.70;2.30;;;;;;;10.76;100.00;99259.28;691708;28;1401;-66
2023/03/24 01:09:09;;;;;;;5.53;2.55;;;;;;;10.73;100.00;99249.81;692753;28;1252;-66
2023/03/24 01:09:29;;;;;;;4.47;2.05;;;;;;;10.73;100.00;99257.66;695004;28;896;-66
2023/03/24 01:09:56;;;;;;;4.63;2.10;;;;;;;10.76;100.00;99260.16;694431;28;4585;-65
2023/03/24 01:10:20;;;;;;;4.07;2.08;;;;;;;10.74;100.00;99254.09;695307;28;885;-65
2023/03/24 01:10:49;;;;;;;4.07;2.05;;;;;;;10.83;100.00;99250.41;693210;28;1545;-66
2023/03/24 01:11:11;;;;;;;4.82;2.15;;;;;;;10.83;100.00;99259.09;693207;28;1344;-67
2023/03/24 01:11:38;;;;;;;4.63;2.20;;;;;;;10.83;100.00;99253.84;689031;28;1780;-66
2023/03/24 01:11:59;;;;;;;4.60;2.20;;;;;;;10.89;100.00;99248.44;688734;28;745;-66
2023/03/24 01:12:20;;;;;;;4.20;2.20;;;;;;;10.93;100.00;99257.06;687964;28;1143;-66
2023/03/24 01:12:41;;;;;;;3.67;2.10;;;;;;;10.94;100.00;99255.28;693197;28;4356;-66
2023/03/24 01:13:02;;;;;;;4.60;2.20;;;;;;;10.94;100.00;99257.91;695132;28;962;-66
2023/03/24 01:13:27;;;;;;;4.10;2.10;;;;;;;10.97;100.00;99250.00;695767;28;1373;-66
2023/03/24 01:13:49;;;;;;;5.15;1.92;;;;;;;10.94;100.00;99257.91;695119;28;893;-66
2023/03/24 01:14:10;;;;;;;3.97;2.00;;;;;;;10.92;100.00;99251.88;695713;28;1182;-66
2023/03/24 01:14:32;;;;;;;3.88;2.03;;;;;;;10.89;100.00;99252.81;696262;28;1271;-64
2023/03/24 01:14:53;;;;;;;3.95;1.98;;;;;;;10.92;100.00;99252.72;695077;28;1332;-67
2023/03/24 01:15:16;;;;;;;3.25;1.88;;;;;;;10.96;100.00;99256.13;696598;28;1002;-66
2023/03/24 01:15:37;;;;;;;3.67;1.90;;;;;;;10.92;100.00;99257.09;696188;28;1023;-65
2023/03/24 01:15:57;;;;;;;3.70;2.00;;;;;;;10.89;100.00;99253.66;692944;28;4379;-65
2023/03/24 01:16:18;;;;;;;4.07;2.20;;;;;;;10.90;100.00;99255.38;690139;28;3741;-64
2023/03/24 01:16:40;;;;;;;4.88;2.60;;;;;;;10.87;100.00;99250.25;690528;28;1485;-64
2023/03/24 01:17:02;;;;;;;4.93;2.28;;;;;;;10.88;100.00;99251.09;692014;28;1281;-65
2023/03/24 01:17:24;;;;;;;5.05;2.45;;;;;;;10.86;100.00;99251.16;691673;28;1004;-64
2023/03/24 01:17:48;;;;;;;4.03;2.20;;;;;;;10.84;100.00;99254.69;691249;28;1091;-65
2023/03/24 01:18:08;;;;;;;5.05;2.03;;;;;;;10.83;100.00;99248.63;694901;28;1463;-65
2023/03/24 01:18:29;;;;;;;3.77;2.10;;;;;;;10.83;100.00;99251.25;696795;28;870;-67
2023/03/24 01:18:49;;;;;;;3.30;1.90;;;;;;;10.84;100.00;99250.34;693908;28;4591;-65
2023/03/24 01:19:09;;;;;;;3.83;1.90;;;;;;;10.90;100.00;99251.94;695941;28;1145;-66
2023/03/24 01:19:31;;;;;;;3.75;2.10;;;;;;;10.88;100.00;99258.94;696672;28;947;-63
2023/03/24 01:19:53;;;;;;;3.80;2.03;;;;;;;10.87;100.00;99250.25;696223;28;1043;-64
2023/03/24 01:20:14;;;;;;;5.15;2.10;;;;;;;10.87;100.00;99259.88;693294;28;884;-64
2023/03/24 01:20:35;;;;;;;5.38;2.15;;;;;;;10.87;100.00;99257.25;695539;28;1355;-63
2023/03/24 01:20:57;;;;;;;4.40;2.35;;;;;;;10.86;100.00;99259.00;694904;28;1572;-64
2023/03/24 01:21:17;;;;;;;3.83;2.20;;;;;;;10.85;100.00;99266.88;695206;28;1352;-65
2023/03/24 01:21:38;;;;;;;4.93;2.20;;;;;;;10.83;100.00;99264.31;695332;28;979;-64
2023/03/24 01:21:59;;;;;;;5.35;2.15;;;;;;;10.81;100.00;99260.88;695303;28;4404;-65
2023/03/24 01:22:20;;;;;;;4.13;2.03;;;;;;;10.86;100.00;99261.59;696569;28;1223;-65
2023/03/24 01:22:43;;;;;;;4.35;2.28;;;;;;;10.83;100.00;99266.94;692582;28;1482;-64
2023/03/24 01:23:04;;;;;;;4.28;2.10;;;;;;;10.83;100.00;99263.47;694835;28;1602;-65
2023/03/24 01:23:25;;;;;;;4.18;2.10;;;;;;;10.90;100.00;99267.63;692413;28;1425;-66
2023/03/24 01:23:46;;;;;;;3.43;2.13;;;;;;;10.99;100.00;99266.50;690551;28;960;-66
2023/03/24 01:24:07;;;;;;;4.70;2.30;;;;;;;10.99;100.00;99274.34;692211;28;1060;-65
2023/03/24 01:24:28;;;;;;;4.57;2.33;;;;;;;11.10;100.00;99263.56;694187;28;1318;-66
2023/03/24 01:24:49;;;;;;;4.40;2.20;;;;;;;11.07;100.00;99264.50;694213;28;4470;-65
2023/03/24 01:25:15;;;;;;;4.35;2.35;;;;;;;11.02;100.00;99263.78;692503;28;1370;-64
2023/03/24 01:25:36;;;;;;;3.85;1.95;;;;;;;10.99;100.00;99264.72;692669;28;1399;-64
2023/03/24 01:25:56;;;;;;;3.90;2.03;;;;;;;10.99;100.00;99261.25;690202;28;1205;-65
2023/03/24 01:26:17;;;;;;;3.67;2.10;;;;;;;11.04;100.00;99264.59;690134;28;848;-66
2023/03/24 01:26:37;;;;;;;4.68;2.20;;;;;;;11.10;100.00;99264.41;687032;28;1407;-66
2023/03/24 01:26:58;;;;;;;3.67;2.03;;;;;;;11.15;100.00;99257.28;683983;28;1505;-66
2023/03/24 01:27:19;;;;;;;3.63;2.00;;;;;;;11.21;100.00;99262.31;683291;28;924;-67
2023/03/24 01:27:39;;;;;;;4.10;2.00;;;;;;;11.18;100.00;99262.44;687502;28;1137;-65
2023/03/24 01:28:00;;;;;;;4.82;2.20;;;;;;;11.15;100.00;99262.53;693485;28;4359;-65
2023/03/24 01:28:23;;;;;;;4.13;2.17;;;;;;;11.10;100.00;99255.72;693166;28;912;-65
2023/03/24 01:28:44;;;;;;;3.70;2.13;;;;;;;11.06;100.00;99258.44;694583;28;1348;-64
2023/03/24 01:29:04;;;;;;;4.23;2.20;;;;;;;11.04;100.00;99264.59;698539;28;1438;-65
2023/03/24 01:29:25;;;;;;;3.80;2.00;;;;;;;11.02;100.00;99259.41;695904;28;1504;-65
2023/03/24 01:29:45;;;;;;;4.77;2.10;;;;;;;11.05;100.00;99259.31;693663;28;1254;-66
2023/03/24 01:30:07;;;;;;;4.53;2.20;;;;;;;11.05;100.00;99264.56;692940;28;916;-65
2023/03/24 01:30:29;;;;;;;4.57;2.25;;;;;;;11.17;100.00;99265.97;698442;28;982;-66
2023/03/24 01:30:53;;;;;;;3.92;2.03;;;;;;;11.20;100.00;99258.03;696218;28;4302;-66
2023/03/24 01:31:13;;;;;;;4.28;2.20;;;;;;;11.23;100.00;99252.69;695742;28;1329;-66
2023/03/24 01:31:34;;;;;;;4.20;2.30;;;;;;;11.18;100.00;99265.03;695920;28;1157;-65
2023/03/24 01:31:55;;;;;;;4.72;2.30;;;;;;;11.12;100.00;99253.91;697710;28;982;-65
2023/03/24 01:32:15;;;;;;;3.85;2.13;;;;;;;11.10;100.00;99255.72;695542;28;1302;-64
2023/03/24 01:32:36;;;;;;;4.50;2.20;;;;;;;11.09;100.00;99252.25;695782;28;1174;-65
2023/03/24 01:32:56;;;;;;;4.07;2.28;;;;;;;11.11;100.00;99253.06;698517;28;1385;-64
2023/03/24 01:33:17;;;;;;;4.13;2.27;;;;;;;11.12;100.00;99251.28;700750;28;1193;-65
2023/03/24 01:33:38;;;;;;;3.78;2.10;;;;;;;11.08;100.00;99247.91;698451;28;956;-64
2023/03/24 01:33:58;;;;;;;4.18;2.17;;;;;;;11.11;100.00;99253.06;698955;28;4526;-65
2023/03/24 01:34:19;;;;;;;4.13;2.37;;;;;;;11.10;100.00;99248.72;698075;28;943;-65
2023/03/24 01:34:39;;;;;;;3.78;2.22;;;;;;;11.07;100.00;99251.44;699188;28;1310;-64
2023/03/24 01:35:00;;;;;;;3.83;2.17;;;;;;;11.06;100.00;99249.72;698201;28;1164;-65
2023/03/24 01:35:22;;;;;;;3.67;2.10;;;;;;;11.10;100.00;99251.34;698472;28;842;-67
2023/03/24 01:35:42;;;;;;;4.30;2.22;;;;;;;11.13;100.00;99248.66;695121;28;1860;-65
2023/03/24 01:36:04;;;;;;;3.80;2.08;;;;;;;11.14;100.00;99252.13;695479;28;1342;-64
2023/03/24 01:36:25;;;;;;;3.42;2.00;;;;;;;11.10;100.00;99251.34;692038;28;1087;-64
2023/03/24 01:36:45;;;;;;;4.30;2.30;;;;;;;11.12;100.00;99249.53;691977;28;4290;-66
2023/03/24 01:37:06;;;;;;;4.25;2.30;;;;;;;11.11;100.00;99242.59;695000;28;826;-64
2023/03/24 01:37:26;;;;;;;4.00;2.07;;;;;;;11.08;100.00;99242.69;696007;28;1027;-63
2023/03/24 01:37:47;;;;;;;3.63;1.95;;;;;;;11.10;100.00;99251.34;692720;28;1472;-65
2023/03/24 01:38:09;;;;;;;3.80;2.10;;;;;;;11.10;100.00;99240.88;697324;28;1030;-65
2023/03/24 01:38:30;;;;;;;4.60;2.10;;;;;;;11.12;100.00;99243.44;696528;28;1451;-65
2023/03/24 01:38:51;;;;;;;4.45;2.30;;;;;;;11.08;100.00;99243.53;692941;28;5124;-64
2023/03/24 01:39:11;;;;;;;4.65;2.05;;;;;;;11.06;100.00;99244.47;694019;28;864;-65
2023/03/24 01:39:32;;;;;;;4.47;2.30;;;;;;;11.03;100.00;99239.34;690530;28;1218;-63
2023/03/24 01:39:52;;;;;;;4.25;2.15;;;;;;;11.05;100.00;99242.78;690249;28;4322;-65
2023/03/24 01:40:19;;;;;;;3.10;1.90;;;;;;;11.15;100.00;99238.13;691699;28;775;-65
2023/03/24 01:40:42;;;;;;;3.97;2.10;;;;;;;11.11;100.00;99247.81;695047;28;991;-63
2023/03/24 01:41:04;;;;;;;4.45;2.30;;;;;;;11.09;100.00;99247.03;695548;28;1940;-64
2023/03/24 01:41:27;;;;;;;3.88;2.30;;;;;;;11.08;100.00;99242.69;694195;28;1025;-65
2023/03/24 01:41:47;;;;;;;3.80;2.60;;;;;;;11.04;100.00;99241.06;691771;28;989;-63
2023/03/24 01:42:17;;;;;;;4.50;2.50;;;;;;;11.02;100.00;99242.84;694553;28;947;-66
2023/03/24 01:42:38;;;;;;;4.40;2.25;;;;;;;11.07;100.00;99238.34;694904;28;1475;-65
2023/03/24 01:42:59;;;;;;;4.38;2.20;;;;;;;11.08;100.00;99242.69;698722;28;4577;-65
2023/03/24 01:43:25;;;;;;;4.22;2.00;;;;;;;11.08;100.00;99233.06;699298;28;1051;-65
2023/03/24 01:43:46;;;;;;;4.93;2.20;;;;;;;11.19;100.00;99230.16;700153;28;935;-66
2023/03/24 01:44:31;;;;;;;4.43;2.20;;;;;;;11.22;100.00;99223.97;698203;28;1294;-65
2023/03/24 01:44:59;;;;;;;4.70;2.25;;;;;;;11.22;100.00;99227.44;698081;28;887;-66
2023/03/24 01:45:41;;;;;;;5.30;2.60;;;;;;;11.30;100.00;99215.88;697610;28;1410;-65
2023/03/24 01:46:07;;;;;;;4.80;2.30;;;;;;;11.24;100.00;99223.03;700903;28;4911;-64
2023/03/24 01:46:28;;;;;;;4.20;2.30;;;;;;;11.24;100.00;99219.53;703167;28;1514;-65
2023/03/24 01:46:49;;;;;;;4.07;2.20;;;;;;;11.19;100.00;99219.69;700071;28;1067;-65
2023/03/24 01:47:09;;;;;;;3.67;2.20;;;;;;;11.19;100.00;99224.06;699584;28;932;-65